Time;durP1;ratioP1;P1;durP2;ratioP2;P2;SDS_P1;SDS_P2;PMS_P1;PMS_P2;Temp;Humidity;BMP_temperature;BMP_pressure;BME280_temperature;BME280_humidity;BME280_pressure;Samples;Min_cycle;Max_cycle;Signal;HPM_P1;HPM_P2
2022/08/18 00:01:21;;;;;;;6.43;3.97;;;;;;;16.01;59.86;101165.94;4950947;28;20054;-76
2022/08/18 00:03:48;;;;;;;10.88;3.83;;;;;;;16.07;59.92;101165.56;4950035;28;20601;-77
2022/08/18 00:06:15;;;;;;;9.23;3.35;;;;;;;16.08;59.99;101166.41;4977021;28;20073;-78
2022/08/18 00:08:40;;;;;;;8.30;3.70;;;;;;;16.08;60.26;101161.97;4974267;28;20491;-75
2022/08/18 00:11:06;;;;;;;7.70;3.58;;;;;;;16.18;60.17;101167.59;4980808;28;20038;-77
2022/08/18 00:13:32;;;;;;;9.55;4.28;;;;;;;16.20;60.24;101168.34;4995872;28;20056;-77
2022/08/18 00:15:57;;;;;;;8.90;3.35;;;;;;;16.32;60.26;101166.75;4979259;28;20038;-76
2022/08/18 00:18:23;;;;;;;6.18;4.03;;;;;;;16.44;59.72;101165.16;4967511;28;20084;-79
2022/08/18 00:20:48;;;;;;;7.57;3.75;;;;;;;16.53;59.71;101156.69;4985362;28;20026;-77
2022/08/18 00:23:14;;;;;;;9.93;4.43;;;;;;;16.63;59.76;101168.41;4965469;28;20518;-77
2022/08/18 00:25:40;;;;;;;7.63;3.22;;;;;;;16.71;59.72;101168.78;4977815;28;20117;-77
2022/08/18 00:28:05;;;;;;;8.70;3.85;;;;;;;16.79;59.91;101168.31;4956379;28;20062;-79
2022/08/18 00:30:32;;;;;;;9.63;4.32;;;;;;;16.79;59.87;101158.59;4976563;28;20038;-79
2022/08/18 00:32:59;;;;;;;8.95;4.32;;;;;;;16.86;59.93;101171.44;4983683;28;20051;-78
2022/08/18 00:35:33;;;;;;;10.57;4.65;;;;;;;16.96;59.82;101159.38;4974847;28;20495;-77
2022/08/18 00:38:00;;;;;;;15.45;5.40;;;;;;;17.02;59.90;101158.97;4982306;28;20038;-78
2022/08/18 00:40:36;;;;;;;15.45;4.80;;;;;;;17.15;59.63;101159.03;4968557;28;20034;-76
2022/08/18 00:43:05;;;;;;;17.63;5.30;;;;;;;17.16;59.45;101161.59;4982110;28;20126;-79
2022/08/18 00:45:35;;;;;;;16.23;5.60;;;;;;;17.06;59.78;101152.56;4983918;28;20026;-78
2022/08/18 00:48:02;;;;;;;10.88;5.50;;;;;;;17.14;59.90;101146.81;4966744;28;20046;-78
2022/08/18 00:50:45;;;;;;;24.13;6.43;;;;;;;17.24;59.85;101142.59;4982000;28;20116;-78
2022/08/18 00:53:20;;;;;;;16.50;7.40;;;;;;;17.18;59.96;101138.59;4998117;28;20448;-78
2022/08/18 00:55:47;;;;;;;20.05;7.43;;;;;;;17.14;60.45;101141.53;4981002;28;20042;-75
2022/08/18 00:58:21;;;;;;;25.08;7.90;;;;;;;17.13;60.54;101134.53;4985561;28;20487;-78
2022/08/18 01:00:49;;;;;;;15.20;7.80;;;;;;;16.94;61.46;101145.41;4971495;28;20041;-78
2022/08/18 01:03:19;;;;;;;13.95;6.28;;;;;;;17.21;60.86;101137.53;4973044;28;20485;-78
2022/08/18 01:05:53;;;;;;;11.82;7.60;;;;;;;17.19;60.76;101140.25;4985301;28;20088;-80
2022/08/18 01:08:19;;;;;;;22.25;6.93;;;;;;;17.30;60.71;101144.88;4986499;28;20820;-77
2022/08/18 01:10:46;;;;;;;28.35;7.32;;;;;;;17.27;60.63;101152.13;4984549;28;20129;-76
2022/08/18 01:13:11;;;;;;;21.20;7.70;;;;;;;17.36;60.26;101151.56;4964370;28;20035;-78
2022/08/18 01:15:37;;;;;;;22.55;6.13;;;;;;;17.34;60.68;101150.81;4961443;28;20400;-76
2022/08/18 01:23:56;;;;;;;20.20;6.40;;;;;;;17.20;61.04;101143.75;4979041;28;20051;-77
2022/08/18 01:26:25;;;;;;;15.00;6.13;;;;;;;17.35;60.37;101145.41;4988208;28;20030;-78
2022/08/18 01:28:52;;;;;;;20.15;6.20;;;;;;;17.36;60.45;101148.91;4987282;28;20049;-79
2022/08/18 01:31:40;;;;;;;14.38;6.30;;;;;;;17.41;60.22;101152.09;4981001;28;20034;-79
2022/08/18 01:34:08;;;;;;;20.02;7.25;;;;;;;17.15;60.94;101144.03;5015605;28;20070;-76
2022/08/18 01:36:36;;;;;;;11.95;5.80;;;;;;;17.34;60.29;101132.31;4991490;28;20026;-75
2022/08/18 01:39:05;;;;;;;20.17;5.80;;;;;;;17.22;60.30;101137.44;5000073;28;20430;-77
2022/08/18 01:41:30;;;;;;;18.83;5.78;;;;;;;17.22;60.51;101134.81;4971468;28;20042;-79
2022/08/18 01:43:58;;;;;;;11.13;5.40;;;;;;;17.14;60.83;101130.94;4980262;28;20137;-76
2022/08/18 01:46:25;;;;;;;9.48;5.18;;;;;;;17.21;60.36;101127.81;4980777;28;20504;-76
2022/08/18 01:48:51;;;;;;;14.73;5.95;;;;;;;17.15;60.43;101137.91;4979700;28;20057;-77
2022/08/18 01:51:19;;;;;;;16.25;5.55;;;;;;;17.21;60.43;101138.38;4986916;28;20092;-76
2022/08/18 01:53:45;;;;;;;16.63;5.85;;;;;;;17.26;60.18;101140.72;4983403;28;20050;-77
2022/08/18 01:56:11;;;;;;;15.50;5.97;;;;;;;17.31;60.37;101138.63;4985688;28;20389;-77
2022/08/18 01:58:37;;;;;;;10.10;6.00;;;;;;;17.38;60.22;101139.94;4985698;28;20045;-76
2022/08/18 02:01:03;;;;;;;15.00;6.63;;;;;;;17.44;60.08;101133.41;4982712;28;20034;-76
2022/08/18 02:03:36;;;;;;;15.65;5.78;;;;;;;17.29;60.20;101139.66;4980378;28;20050;-75
2022/08/18 02:06:06;;;;;;;19.77;5.82;;;;;;;17.34;60.67;101133.16;4980888;28;20034;-76
2022/08/18 02:08:31;;;;;;;11.05;4.90;;;;;;;17.50;59.79;101130.41;4983097;28;20206;-76
2022/08/18 02:10:57;;;;;;;18.80;5.28;;;;;;;17.44;60.04;101125.47;4967433;28;20039;-76
2022/08/18 02:13:24;;;;;;;13.43;4.70;;;;;;;17.45;59.77;101120.09;4962701;28;20125;-75
2022/08/18 02:15:49;;;;;;;11.95;4.82;;;;;;;17.36;60.00;101122.50;4962835;28;20431;-79
2022/08/18 02:18:17;;;;;;;11.43;5.10;;;;;;;17.39;59.84;101120.50;4973438;28;20217;-78
2022/08/18 02:20:43;;;;;;;14.25;5.35;;;;;;;17.38;60.00;101117.94;4967536;28;20045;-74
2022/08/18 02:23:10;;;;;;;7.57;4.65;;;;;;;17.39;59.45;101117.00;4968531;28;20042;-76
2022/08/18 02:25:36;;;;;;;5.07;2.88;;;;;;;17.34;59.71;101111.19;4963529;28;20731;-77
2022/08/18 02:28:03;;;;;;;8.93;4.20;;;;;;;17.22;59.87;101118.09;4965287;28;20043;-76
2022/08/18 02:30:28;;;;;;;9.48;4.50;;;;;;;17.29;59.82;101113.25;4965027;28;20038;-76
2022/08/18 02:32:56;;;;;;;10.95;4.57;;;;;;;17.33;59.56;101114.75;4971155;28;20053;-76
2022/08/18 02:35:22;;;;;;;7.70;4.40;;;;;;;17.23;59.86;101118.00;4978354;28;20034;-76
2022/08/18 02:37:47;;;;;;;10.52;4.65;;;;;;;17.19;59.92;101119.13;4984119;28;21098;-79
2022/08/18 02:40:14;;;;;;;6.50;4.45;;;;;;;17.14;59.98;101113.31;4965758;28;20034;-78
2022/08/18 02:42:40;;;;;;;6.65;4.50;;;;;;;17.20;59.74;101118.22;4971038;28;20050;-76
2022/08/18 02:45:06;;;;;;;6.13;4.38;;;;;;;17.07;60.15;101111.13;4982610;28;20037;-77
2022/08/18 02:47:32;;;;;;;5.78;4.30;;;;;;;17.18;59.81;101121.88;4969977;28;20054;-76
2022/08/18 02:49:58;;;;;;;6.45;4.43;;;;;;;17.13;59.91;101108.94;4979449;28;20408;-77
2022/08/18 02:52:31;;;;;;;12.60;6.10;;;;;;;17.08;59.94;101108.41;4983370;28;20034;-76
2022/08/18 02:55:00;;;;;;;8.05;5.35;;;;;;;17.13;59.84;101106.31;4972616;28;20030;-77
2022/08/18 02:57:26;;;;;;;8.68;5.15;;;;;;;17.15;59.63;101108.88;4981496;28;20105;-76
2022/08/18 02:59:53;;;;;;;9.90;5.50;;;;;;;17.15;59.64;101116.78;4979414;28;20111;-77
2022/08/18 03:02:19;;;;;;;10.80;5.30;;;;;;;17.22;59.74;101108.38;4967565;28;20420;-77
2022/08/18 03:04:45;;;;;;;9.05;6.57;;;;;;;17.27;59.41;101116.00;4982184;28;20491;-77
2022/08/18 03:07:10;;;;;;;11.35;6.10;;;;;;;17.27;59.48;101109.84;4986964;28;20475;-75
2022/08/18 03:09:36;;;;;;;7.68;5.78;;;;;;;17.29;59.43;101116.75;4984992;28;20026;-76
2022/08/18 03:12:02;;;;;;;6.05;5.05;;;;;;;17.39;59.23;101117.00;4982571;28;20468;-76
2022/08/18 03:14:29;;;;;;;6.65;4.85;;;;;;;17.39;59.36;101125.78;4981937;28;20890;-76
2022/08/18 03:16:54;;;;;;;7.65;5.88;;;;;;;17.47;59.52;101127.94;4987961;28;20030;-77
2022/08/18 03:19:23;;;;;;;9.70;6.80;;;;;;;17.54;59.11;101115.19;4982342;28;20388;-77
2022/08/18 03:21:48;;;;;;;10.90;6.18;;;;;;;17.55;59.21;101117.72;4982024;28;20045;-76
2022/08/18 03:24:14;;;;;;;12.98;7.47;;;;;;;17.57;59.04;101112.34;4990867;28;20085;-77
2022/08/18 03:26:42;;;;;;;11.10;7.28;;;;;;;17.53;59.06;101114.31;4965697;28;20117;-78
2022/08/18 03:29:09;;;;;;;15.07;8.68;;;;;;;17.51;59.20;101123.31;4996847;28;20419;-76
2022/08/18 03:31:36;;;;;;;15.00;7.55;;;;;;;17.59;59.16;101115.72;4995558;28;20490;-78
2022/08/18 03:34:02;;;;;;;8.32;7.13;;;;;;;17.65;59.23;101116.19;4982512;28;20162;-76
2022/08/18 03:36:33;;;;;;;15.57;8.43;;;;;;;17.58;59.04;101114.88;4980030;28;20406;-79
2022/08/18 03:39:05;;;;;;;10.47;7.10;;;;;;;17.61;59.11;101113.84;4956557;28;20046;-78
2022/08/18 03:41:31;;;;;;;10.45;7.40;;;;;;;17.68;58.93;101116.94;4954769;28;20113;-76
2022/08/18 03:43:57;;;;;;;11.50;7.43;;;;;;;17.71;58.83;101109.63;4966988;28;20074;-79
2022/08/18 03:46:23;;;;;;;9.50;6.88;;;;;;;17.71;59.20;101116.72;4956423;28;20078;-76
2022/08/18 03:48:50;;;;;;;13.85;7.10;;;;;;;17.75;58.85;101104.97;4979970;28;20038;-78
2022/08/18 03:51:20;;;;;;;9.18;6.88;;;;;;;17.74;59.24;101103.28;4984924;28;20057;-77
2022/08/18 03:53:48;;;;;;;9.82;6.82;;;;;;;17.72;58.97;101105.19;4982196;28;20308;-76
2022/08/18 03:56:20;;;;;;;8.98;6.60;;;;;;;17.67;59.10;101113.44;4962775;28;20114;-78
2022/08/18 03:58:49;;;;;;;7.93;6.28;;;;;;;17.70;59.11;101112.38;4965983;28;20065;-77
2022/08/18 04:01:18;;;;;;;8.23;6.35;;;;;;;17.67;59.01;101112.56;4944157;28;20045;-78
2022/08/18 04:03:46;;;;;;;7.85;6.22;;;;;;;17.67;59.42;101112.56;4941674;28;20046;-75
2022/08/18 04:06:21;;;;;;;9.27;4.80;;;;;;;17.68;59.09;101119.56;4953483;28;20027;-75
2022/08/18 04:08:50;;;;;;;9.45;4.80;;;;;;;17.73;59.17;101123.59;4987151;28;20069;-75
2022/08/18 04:11:15;;;;;;;10.95;5.10;;;;;;;17.51;59.57;101124.16;4986433;28;20039;-74
2022/08/18 04:13:41;;;;;;;8.35;4.97;;;;;;;17.56;59.22;101119.44;4970682;28;20056;-76
2022/08/18 04:16:07;;;;;;;6.05;4.13;;;;;;;17.56;59.55;101124.72;4944092;28;20022;-76
2022/08/18 04:18:32;;;;;;;8.10;4.50;;;;;;;17.63;59.62;101144.50;4978882;28;20045;-76
2022/08/18 04:21:07;;;;;;;8.50;5.05;;;;;;;17.67;59.52;101129.28;4984782;28;20038;-77
2022/08/18 04:23:35;;;;;;;6.07;3.92;;;;;;;17.69;59.37;101134.47;4980344;28;20046;-76
2022/08/18 04:26:01;;;;;;;9.50;5.55;;;;;;;17.65;59.08;101137.31;4963216;28;20453;-78
2022/08/18 04:28:28;;;;;;;6.00;4.40;;;;;;;17.67;59.54;101128.44;4953454;28;20217;-79
2022/08/18 04:30:58;;;;;;;8.50;4.20;;;;;;;17.69;59.51;101137.09;4961242;28;20138;-75
2022/08/18 04:33:25;;;;;;;11.55;4.88;;;;;;;17.78;59.45;101131.19;4958713;28;20039;-77
2022/08/18 04:35:51;;;;;;;10.27;5.70;;;;;;;17.80;59.36;101134.59;4953746;28;20097;-75
2022/08/18 04:38:17;;;;;;;5.82;3.75;;;;;;;17.83;59.31;101134.41;4958725;28;20101;-76
2022/08/18 04:40:42;;;;;;;7.40;4.00;;;;;;;17.83;59.30;101139.69;4959309;28;20042;-75
2022/08/18 04:43:13;;;;;;;9.27;5.00;;;;;;;17.84;59.54;101150.16;4971490;28;20049;-77
2022/08/18 04:45:43;;;;;;;4.07;3.05;;;;;;;17.87;59.46;101141.16;5000930;28;20033;-77
2022/08/18 04:48:11;;;;;;;9.27;4.32;;;;;;;17.83;59.36;101150.28;4983187;28;20046;-76
2022/08/18 04:50:37;;;;;;;11.35;5.18;;;;;;;17.83;59.23;101145.81;4975227;28;20089;-75
2022/08/18 04:55:52;;;;;;;8.85;5.70;;;;;;;17.89;59.29;101156.94;4989829;28;20042;-77
2022/08/18 04:58:19;;;;;;;8.50;5.22;;;;;;;17.87;59.32;101157.03;4997492;28;20141;-78
2022/08/18 05:00:45;;;;;;;9.43;4.28;;;;;;;17.87;58.87;101175.53;4970193;28;20046;-77
2022/08/18 05:03:12;;;;;;;7.82;4.88;;;;;;;17.77;59.38;101171.81;4980321;28;20661;-77
2022/08/18 05:05:37;;;;;;;8.70;5.18;;;;;;;17.78;59.34;101170.84;4966597;28;20089;-79
2022/08/18 05:08:03;;;;;;;6.78;4.50;;;;;;;17.78;59.50;101173.50;4964569;28;20042;-77
2022/08/18 05:10:29;;;;;;;13.50;5.30;;;;;;;17.75;59.36;101173.72;4951416;28;20027;-77
2022/08/18 05:12:56;;;;;;;12.82;6.00;;;;;;;17.73;59.47;101171.16;4966908;28;20098;-79
2022/08/18 05:15:22;;;;;;;8.52;4.97;;;;;;;17.67;59.86;101160.16;4980330;28;20045;-77
2022/08/18 05:17:47;;;;;;;7.45;6.07;;;;;;;17.68;59.64;101161.84;4964112;28;20043;-79
2022/08/18 05:20:12;;;;;;;9.25;6.00;;;;;;;17.68;59.96;101156.56;4961374;28;20045;-79
2022/08/18 05:22:40;;;;;;;10.30;5.30;;;;;;;17.79;59.60;101162.00;4970694;28;20370;-76
2022/08/18 05:25:09;;;;;;;12.27;4.90;;;;;;;17.78;59.91;101168.22;4947520;28;20038;-78
2022/08/18 05:27:38;;;;;;;12.20;6.35;;;;;;;17.81;59.36;101163.59;4958043;28;20109;-77
2022/08/18 05:30:06;;;;;;;12.27;5.90;;;;;;;17.79;59.76;101172.56;4947755;28;20034;-77
2022/08/18 05:32:43;;;;;;;14.40;4.95;;;;;;;17.81;59.49;101168.03;4960934;28;20809;-76
2022/08/18 05:35:21;;;;;;;14.70;6.10;;;;;;;17.71;59.72;101167.78;4988141;28;20046;-76
2022/08/18 05:38:16;;;;;;;15.40;5.65;;;;;;;17.69;59.96;101168.81;4991485;28;20038;-78
2022/08/18 05:40:44;;;;;;;10.95;5.75;;;;;;;17.60;60.31;101160.56;4985547;28;20177;-76
2022/08/18 05:43:11;;;;;;;12.75;6.80;;;;;;;17.57;60.69;101162.56;4966954;28;20112;-76
2022/08/18 05:45:39;;;;;;;14.23;7.70;;;;;;;17.49;60.67;101168.31;4950493;28;20035;-78
2022/08/18 05:48:05;;;;;;;12.27;6.57;;;;;;;17.46;60.80;101165.84;4964426;28;20043;-78
2022/08/18 05:50:35;;;;;;;16.17;6.93;;;;;;;17.43;61.11;101163.41;4961396;28;20042;-77
2022/08/18 05:53:04;;;;;;;13.43;6.85;;;;;;;17.55;61.23;101173.22;4962122;28;20113;-76
2022/08/18 05:58:32;;;;;;;12.98;7.65;;;;;;;17.74;60.67;101166.72;4968130;28;20117;-77
2022/08/18 06:01:03;;;;;;;11.55;6.57;;;;;;;17.82;60.34;101164.41;4955224;28;20035;-77
2022/08/18 06:03:36;;;;;;;16.85;7.40;;;;;;;17.88;60.46;101174.59;4972209;28;20062;-76
2022/08/18 06:06:09;;;;;;;9.82;7.70;;;;;;;17.84;60.75;101181.88;4970003;28;20185;-78
2022/08/18 06:08:55;;;;;;;12.32;7.53;;;;;;;18.00;60.95;101183.50;4946245;28;20085;-77
2022/08/18 06:11:20;;;;;;;14.40;7.63;;;;;;;18.03;60.51;101191.25;4956904;28;20098;-79
2022/08/18 06:13:46;;;;;;;18.67;7.82;;;;;;;18.22;60.57;101191.72;4951913;28;20051;-76
2022/08/18 06:16:37;;;;;;;14.52;8.10;;;;;;;18.42;60.35;101197.47;4956513;28;20114;-77
2022/08/18 06:19:28;;;;;;;13.63;7.70;;;;;;;18.41;59.76;101201.94;4962177;28;20039;-77
2022/08/18 06:22:16;;;;;;;17.92;7.90;;;;;;;18.58;59.89;101210.50;4992446;28;20101;-76
2022/08/18 06:25:06;;;;;;;14.57;7.60;;;;;;;18.57;59.59;101207.00;4982609;28;20189;-77
2022/08/18 06:27:43;;;;;;;22.13;8.18;;;;;;;18.37;59.46;101200.44;4972969;28;20046;-77
2022/08/18 06:30:24;;;;;;;13.55;5.55;;;;;;;18.36;59.57;101193.44;4985142;28;20042;-77
2022/08/18 06:33:08;;;;;;;17.20;7.53;;;;;;;18.40;60.16;101197.56;4978891;28;20507;-76
2022/08/18 06:35:36;;;;;;;13.75;6.65;;;;;;;18.59;59.80;101201.63;4982281;28;20061;-75
2022/08/18 06:41:11;;;;;;;9.60;5.35;;;;;;;18.66;59.20;101194.94;4960990;28;20135;-77
2022/08/18 06:43:47;;;;;;;18.20;6.20;;;;;;;18.61;59.01;101194.41;4969235;28;20046;-75
2022/08/18 06:46:19;;;;;;;12.40;5.40;;;;;;;18.28;59.59;101203.72;4979304;28;20392;-76
2022/08/18 06:48:56;;;;;;;13.95;4.82;;;;;;;18.35;59.19;101204.97;4944219;28;20051;-76
2022/08/18 06:51:26;;;;;;;16.33;5.18;;;;;;;18.37;59.28;101208.38;4961903;28;20053;-77
2022/08/18 06:54:04;;;;;;;8.85;5.00;;;;;;;18.35;59.28;101207.63;4958943;28;20053;-77
2022/08/18 06:56:36;;;;;;;20.15;4.40;;;;;;;18.13;59.57;101202.06;4944514;28;20039;-76
2022/08/18 06:59:33;;;;;;;16.10;4.10;;;;;;;17.99;59.80;101219.69;4973619;28;20059;-77
2022/08/18 07:02:20;;;;;;;17.40;6.22;;;;;;;17.90;59.89;101207.09;4951411;28;20051;-76
2022/08/18 07:05:06;;;;;;;15.80;5.50;;;;;;;17.98;59.95;101209.22;4959345;28;20758;-78
2022/08/18 07:07:38;;;;;;;20.80;6.40;;;;;;;17.93;59.94;101214.78;4966465;28;20056;-77
2022/08/18 07:10:25;;;;;;;15.18;5.28;;;;;;;17.86;60.26;101218.81;4979645;28;20030;-78
2022/08/18 07:12:51;;;;;;;13.68;5.13;;;;;;;18.19;59.25;101220.19;4947874;28;20135;-76
2022/08/18 07:15:23;;;;;;;20.88;5.65;;;;;;;18.00;59.42;101216.09;4938103;28;20098;-78
2022/08/18 07:17:50;;;;;;;22.65;5.78;;;;;;;17.79;59.88;101228.94;4968645;28;20061;-77
2022/08/18 07:20:23;;;;;;;20.77;4.82;;;;;;;18.15;58.98;101219.50;4983347;28;20034;-78
2022/08/18 07:22:56;;;;;;;10.38;4.97;;;;;;;18.02;58.76;101230.06;4969413;28;20078;-80
2022/08/18 07:25:52;;;;;;;16.77;5.10;;;;;;;18.11;58.70;101240.97;4971876;28;20097;-79
2022/08/18 07:28:43;;;;;;;7.30;4.50;;;;;;;18.22;58.03;101233.22;4964328;28;20046;-78
2022/08/18 07:31:08;;;;;;;15.10;4.97;;;;;;;18.34;57.88;101235.06;4987844;28;20066;-80
2022/08/18 07:33:35;;;;;;;13.55;5.25;;;;;;;18.51;57.86;101241.00;4974108;28;20139;-77
2022/08/18 07:36:05;;;;;;;16.35;4.60;;;;;;;18.39;57.79;101226.81;4954001;28;20047;-79
2022/08/18 07:38:41;;;;;;;13.82;4.90;;;;;;;18.52;57.85;101232.09;4967526;28;20623;-79
2022/08/18 07:41:14;;;;;;;21.55;5.30;;;;;;;18.71;57.14;101232.53;4969890;28;20090;-81
2022/08/18 07:43:52;;;;;;;13.30;3.72;;;;;;;18.81;57.04;101230.94;4988588;28;20085;-79
2022/08/18 07:46:36;;;;;;;11.30;4.07;;;;;;;18.97;56.63;101237.84;4986726;28;20085;-79
2022/08/18 07:49:02;;;;;;;14.80;4.38;;;;;;;19.16;55.48;101248.00;5006323;28;20125;-80
2022/08/18 07:51:35;;;;;;;15.63;4.15;;;;;;;19.21;55.85;101244.06;4987072;28;20038;-78
2022/08/18 07:54:10;;;;;;;12.02;4.55;;;;;;;19.09;54.87;101252.88;4986199;28;20049;-80
2022/08/18 07:57:00;;;;;;;9.90;4.57;;;;;;;19.43;55.32;101251.31;4975071;28;20042;-80
2022/08/18 07:59:42;;;;;;;13.85;4.95;;;;;;;19.75;53.91;101252.63;4971800;28;20559;-80
2022/08/18 08:02:27;;;;;;;21.45;5.95;;;;;;;19.67;53.45;101251.38;4983032;28;20522;-80
2022/08/18 08:05:05;;;;;;;8.95;4.35;;;;;;;19.78;52.80;101265.69;4970456;28;20050;-78
2022/08/18 08:07:44;;;;;;;15.00;5.07;;;;;;;19.43;53.70;101261.91;5001757;28;20046;-77
2022/08/18 08:10:32;;;;;;;10.70;4.68;;;;;;;19.68;53.10;101269.00;4987315;28;20034;-77
2022/08/18 08:13:36;;;;;;;13.02;3.67;;;;;;;19.74;52.53;101282.75;4955283;28;20142;-78
2022/08/18 08:16:39;;;;;;;10.38;4.68;;;;;;;19.77;52.91;101280.75;4965631;28;20027;-78
2022/08/18 08:19:32;;;;;;;14.85;4.07;;;;;;;19.59;53.40;101277.63;4945112;28;20035;-78
2022/08/18 08:22:11;;;;;;;18.08;5.25;;;;;;;19.21;54.28;101283.81;4958249;28;20054;-77
2022/08/18 08:24:50;;;;;;;16.42;5.28;;;;;;;18.94;54.95;101285.72;4964096;28;20038;-78
2022/08/18 08:27:48;;;;;;;13.77;4.60;;;;;;;19.23;54.20;101297.81;4975987;28;20043;-76
2022/08/18 08:30:17;;;;;;;11.93;4.22;;;;;;;18.97;55.19;101290.84;4948010;28;20045;-78
2022/08/18 08:32:48;;;;;;;11.15;3.90;;;;;;;18.96;54.95;101291.78;4975682;28;20073;-76
2022/08/18 08:35:18;;;;;;;;;;;;;;;18.93;54.32;101292.84;4997184;28;20042;-76
2022/08/18 08:38:00;;;;;;;12.98;3.75;;;;;;;18.78;54.68;101294.69;4982056;28;20514;-75
2022/08/18 08:40:31;;;;;;;14.25;4.15;;;;;;;18.68;54.70;101293.63;4976015;28;20045;-75
2022/08/18 08:43:10;;;;;;;20.33;3.88;;;;;;;18.98;54.45;101303.09;4979162;28;20710;-76
2022/08/18 08:45:43;;;;;;;12.45;3.42;;;;;;;19.16;54.64;101301.81;4985716;28;20038;-77
2022/08/18 08:48:19;;;;;;;10.82;3.78;;;;;;;19.27;54.02;101301.06;4981497;28;20042;-76
2022/08/18 08:51:16;;;;;;;8.52;2.47;;;;;;;19.33;53.39;101291.84;4982704;28;20291;-75
2022/08/18 08:53:47;;;;;;;10.95;3.10;;;;;;;19.47;53.26;101294.38;4980902;28;20042;-76
2022/08/18 08:56:15;;;;;;;12.25;4.03;;;;;;;19.68;51.99;101300.81;4980823;28;20042;-76
2022/08/18 08:59:02;;;;;;;18.27;4.30;;;;;;;19.51;52.33;101299.34;4964052;28;20038;-75
2022/08/18 09:01:39;;;;;;;11.82;2.85;;;;;;;19.33;52.80;101302.47;4995978;28;20608;-76
2022/08/18 09:04:25;;;;;;;12.82;3.22;;;;;;;19.37;52.98;101303.91;4980013;28;20054;-76
2022/08/18 09:07:26;;;;;;;16.73;3.47;;;;;;;19.00;53.62;101307.34;4977525;28;20058;-76
2022/08/18 09:10:18;;;;;;;11.27;3.50;;;;;;;19.10;53.83;101302.28;4980868;28;20390;-76
2022/08/18 09:13:10;;;;;;;;;;;;;;;18.81;54.52;101305.09;4988205;28;20108;-76
2022/08/18 09:16:02;;;;;;;13.45;2.97;;;;;;;18.74;53.98;101300.31;4931318;28;19918;-76
2022/08/18 09:18:50;;;;;;;9.65;2.85;;;;;;;18.96;53.71;101305.84;4963397;28;20821;-78
2022/08/18 09:21:36;;;;;;;9.95;2.70;;;;;;;18.95;54.06;101305.97;4958973;28;20110;-76
2022/08/18 09:24:13;;;;;;;11.75;5.03;;;;;;;19.17;53.39;101308.84;4959039;28;20143;-76
2022/08/18 09:26:41;;;;;;;11.18;3.40;;;;;;;19.03;53.75;101316.88;4963175;28;20361;-76
2022/08/18 09:29:56;;;;;;;9.93;3.60;;;;;;;19.01;52.99;101319.66;4980031;28;20054;-77
2022/08/18 09:32:21;;;;;;;10.18;3.50;;;;;;;19.12;52.79;101315.38;4992676;28;20042;-77
2022/08/18 09:34:59;;;;;;;12.48;3.85;;;;;;;19.03;53.33;101312.44;4963456;28;20038;-77
2022/08/18 09:41:30;;;;;;;12.63;4.13;;;;;;;18.63;53.94;101319.56;4963819;28;20054;-78
2022/08/18 09:43:38;;;;;;;14.73;3.40;;;;;;;18.83;52.68;101320.84;4960876;28;20529;-77
2022/08/18 09:46:05;;;;;;;11.55;2.92;;;;;;;18.37;54.12;101324.81;4964583;28;20042;-76
2022/08/18 09:48:34;;;;;;;16.42;3.50;;;;;;;18.40;54.25;101335.19;4955449;28;20054;-76
2022/08/18 09:51:17;;;;;;;12.63;3.85;;;;;;;17.78;55.42;101335.63;4964051;28;20029;-77
2022/08/18 09:53:45;;;;;;;10.07;3.42;;;;;;;17.62;55.63;101338.38;4983506;28;20042;-79
2022/08/18 09:56:16;;;;;;;11.55;2.65;;;;;;;18.23;55.10;101338.09;4998973;28;20208;-76
2022/08/18 09:59:00;;;;;;;12.23;3.17;;;;;;;18.31;54.11;101335.78;4970780;28;20522;-77
2022/08/18 10:01:30;;;;;;;11.70;3.15;;;;;;;18.55;53.67;101333.31;4986198;28;20038;-75
2022/08/18 10:04:15;;;;;;;9.88;3.08;;;;;;;18.63;53.37;101336.31;4995287;28;20058;-76
2022/08/18 10:06:44;;;;;;;11.27;2.45;;;;;;;18.74;53.18;101332.91;4977663;28;20030;-75
2022/08/18 10:09:41;;;;;;;5.10;1.88;;;;;;;19.14;53.05;101332.88;4964875;28;20042;-77
2022/08/18 10:12:06;;;;;;;8.68;3.05;;;;;;;18.44;52.75;101341.97;4981754;28;20072;-77
2022/08/18 10:14:57;;;;;;;8.85;1.98;;;;;;;18.74;52.97;101348.81;4974263;28;20480;-75
2022/08/18 10:17:29;;;;;;;10.35;1.75;;;;;;;18.69;52.84;101342.97;4997294;28;20125;-78
2022/08/18 10:20:26;;;;;;;9.75;2.22;;;;;;;18.50;53.22;101353.97;4975988;28;20037;-77
2022/08/18 10:22:52;;;;;;;7.88;2.45;;;;;;;18.09;54.01;101352.16;4974631;28;20058;-77
2022/08/18 10:25:39;;;;;;;5.28;2.28;;;;;;;18.50;53.35;101347.78;4982844;28;20087;-76
2022/08/18 10:28:10;;;;;;;13.13;2.50;;;;;;;18.45;53.37;101353.41;4966495;28;20498;-77
2022/08/18 10:30:35;;;;;;;8.15;2.75;;;;;;;17.99;53.88;101356.38;4962256;28;20045;-77
2022/08/18 10:33:07;;;;;;;6.82;3.08;;;;;;;18.00;53.60;101353.59;4943854;28;20054;-77
2022/08/18 10:35:32;;;;;;;9.25;2.40;;;;;;;18.16;53.37;101360.56;4955319;28;20042;-77
2022/08/18 10:38:16;;;;;;;6.47;3.35;;;;;;;18.25;53.90;101360.88;4961596;28;20050;-75
2022/08/18 10:40:50;;;;;;;6.97;3.13;;;;;;;18.22;53.29;101360.19;4956490;28;20035;-76
2022/08/18 10:43:22;;;;;;;9.45;2.95;;;;;;;18.06;54.03;101358.50;4977216;28;20500;-77
2022/08/18 10:45:52;;;;;;;8.60;2.80;;;;;;;17.96;54.38;101367.13;4953775;28;20042;-77
2022/08/18 10:48:27;;;;;;;9.95;3.30;;;;;;;18.16;53.39;101363.22;4981259;28;20049;-77
2022/08/18 10:50:58;;;;;;;14.00;4.35;;;;;;;18.36;52.80;101364.59;4958354;28;20129;-75
2022/08/18 10:53:39;;;;;;;10.23;2.97;;;;;;;18.62;52.32;101357.59;4980092;28;20120;-76
2022/08/18 10:56:29;;;;;;;;;;;;;;;19.12;50.66;101352.47;4984852;28;20037;-76
2022/08/18 10:59:13;;;;;;;11.65;4.28;;;;;;;19.25;50.46;101353.34;4968698;28;19921;-76
2022/08/18 11:02:03;;;;;;;6.97;4.32;;;;;;;18.77;51.36;101359.22;4980616;28;20042;-76
2022/08/18 11:04:35;;;;;;;11.52;3.83;;;;;;;18.98;51.40;101359.56;4993610;28;20058;-77
2022/08/18 11:07:09;;;;;;;11.20;4.22;;;;;;;18.77;50.91;101363.66;4974769;28;20055;-76
2022/08/18 11:09:36;;;;;;;9.43;3.72;;;;;;;18.83;51.09;101357.94;4979908;28;20042;-75
2022/08/18 11:12:03;;;;;;;9.27;4.20;;;;;;;18.81;51.28;101371.28;4979997;28;20136;-75
2022/08/18 11:15:16;;;;;;;12.40;5.35;;;;;;;18.73;51.17;101370.09;4979079;28;20023;-76
2022/08/18 11:18:17;;;;;;;12.00;3.88;;;;;;;19.37;49.99;101370.16;4925280;28;20047;-77
2022/08/18 11:20:43;;;;;;;8.48;5.03;;;;;;;19.85;48.78;101373.00;4941838;28;20457;-76
2022/08/18 11:23:15;;;;;;;8.80;3.55;;;;;;;19.76;48.31;101374.50;4956227;28;20058;-77
2022/08/18 11:25:41;;;;;;;6.80;3.00;;;;;;;19.08;49.53;101383.66;4962895;28;20032;-77
2022/08/18 11:28:19;;;;;;;10.93;3.67;;;;;;;19.09;49.59;101380.03;4964245;28;20184;-75
2022/08/18 11:30:49;;;;;;;7.65;3.05;;;;;;;18.89;50.45;101390.19;4975158;28;20045;-79
2022/08/18 11:33:17;;;;;;;12.77;3.53;;;;;;;18.67;51.24;101397.81;4955251;28;20046;-76
2022/08/18 11:35:47;;;;;;;12.68;3.33;;;;;;;18.05;52.78;101388.56;4980310;28;20065;-76
2022/08/18 11:38:14;;;;;;;24.27;4.13;;;;;;;17.62;54.03;101393.88;4981032;28;20042;-78
2022/08/18 11:40:43;;;;;;;22.98;3.25;;;;;;;18.00;53.33;101389.78;4978668;28;20673;-77
2022/08/18 11:43:14;;;;;;;21.55;3.88;;;;;;;18.46;52.42;101398.28;4979116;28;20034;-76
2022/08/18 11:45:43;;;;;;;10.45;3.97;;;;;;;18.13;53.13;101395.16;4983650;28;20049;-75
2022/08/18 11:48:18;;;;;;;15.13;2.75;;;;;;;17.90;52.91;101389.53;4981340;28;20125;-76
2022/08/18 11:51:00;;;;;;;11.25;3.63;;;;;;;18.11;53.20;101392.59;4976522;28;20057;-77
2022/08/18 11:53:32;;;;;;;14.20;2.83;;;;;;;18.12;52.38;101385.50;4976601;28;20130;-74
2022/08/18 11:56:12;;;;;;;19.55;4.30;;;;;;;18.34;51.89;101388.53;4985318;28;20046;-77
2022/08/18 11:58:44;;;;;;;15.57;3.08;;;;;;;18.39;52.52;101397.00;4975751;28;20042;-78
2022/08/18 12:01:30;;;;;;;12.32;2.72;;;;;;;18.57;51.83;101391.47;4995334;28;20053;-75
2022/08/18 12:04:09;;;;;;;9.43;2.72;;;;;;;18.44;51.62;101400.19;4952663;28;20943;-76
2022/08/18 12:06:36;;;;;;;13.40;2.92;;;;;;;18.57;51.70;101396.75;4938273;28;20058;-77